Time;durP1;ratioP1;P1;durP2;ratioP2;P2;SDS_P1;SDS_P2;PMS_P1;PMS_P2;Temp;Humidity;BMP_temperature;BMP_pressure;BME280_temperature;BME280_humidity;BME280_pressure;Samples;Min_cycle;Max_cycle;Signal;HPM_P1;HPM_P2
2023/04/13 04:46:18;;;;;;;34.30;15.30;;;;;;;9.79;100.00;98709.70;109529;1280;22287;-43
2023/04/13 04:48:52;;;;;;;33.70;15.40;;;;;;;9.80;100.00;98706.21;109419;1283;22291;-46
2023/04/13 04:51:24;;;;;;;36.80;15.90;;;;;;;9.81;100.00;98711.41;109377;1278;24836;-41
2023/04/13 04:53:52;;;;;;;34.50;16.70;;;;;;;9.83;100.00;98715.89;108427;1285;25286;-45
2023/04/13 04:56:23;;;;;;;39.60;19.50;;;;;;;9.84;100.00;98724.23;106892;1285;22623;-41
2023/04/13 04:58:54;;;;;;;39.90;20.70;;;;;;;9.83;100.00;98732.59;108015;1283;25321;-41
2023/04/13 05:01:28;;;;;;;56.50;19.70;;;;;;;9.84;100.00;98732.92;109445;1280;22165;-46
2023/04/13 05:04:06;;;;;;;44.60;19.90;;;;;;;9.85;100.00;98732.89;109253;1278;23607;-41
2023/04/13 05:06:39;;;;;;;45.40;19.70;;;;;;;9.89;100.00;98730.55;109252;1280;22370;-41
2023/04/13 05:09:13;;;;;;;48.90;22.30;;;;;;;9.93;100.00;98727.87;109330;1280;22476;-42
2023/04/13 05:11:46;;;;;;;60.50;24.20;;;;;;;9.94;100.00;98730.45;109239;1273;23427;-47
2023/04/13 05:14:16;;;;;;;52.80;22.00;;;;;;;9.96;100.00;98731.63;109247;1282;22392;-42
2023/04/13 05:16:44;;;;;;;50.30;23.10;;;;;;;9.98;100.00;98732.81;109268;1280;22857;-42
2023/04/13 05:19:18;;;;;;;45.70;22.20;;;;;;;10.00;100.00;98724.73;109215;1280;23187;-42
2023/04/13 05:22:00;;;;;;;43.10;21.30;;;;;;;10.03;100.00;98724.84;109133;1270;23413;-46
2023/04/13 05:24:34;;;;;;;43.40;21.70;;;;;;;10.06;100.00;98726.00;109199;1278;23156;-46
2023/04/13 05:27:08;;;;;;;46.20;21.60;;;;;;;10.07;100.00;98726.83;109133;1283;22421;-46
2023/04/13 05:29:36;;;;;;;40.90;19.40;;;;;;;10.10;100.00;98724.86;109067;1280;22985;-41
2023/04/13 05:32:05;;;;;;;36.10;18.20;;;;;;;10.14;100.00;98725.11;108879;1279;23861;-43
2023/04/13 05:34:46;;;;;;;36.80;19.30;;;;;;;10.16;100.00;98725.27;108832;1280;22941;-41
2023/04/13 05:37:51;;;;;;;38.10;18.80;;;;;;;10.19;100.00;98731.08;108608;1280;22957;-48
2023/04/13 05:40:47;;;;;;;36.80;18.20;;;;;;;10.21;100.00;98732.63;108688;1280;23566;-46
2023/04/13 05:43:36;;;;;;;35.60;18.80;;;;;;;10.22;100.00;98734.18;108202;1280;22453;-47
2023/04/13 05:46:16;;;;;;;36.60;19.70;;;;;;;10.20;100.00;98736.30;108422;1280;23925;-41
2023/04/13 05:49:26;;;;;;;41.00;18.70;;;;;;;10.20;100.00;98742.23;107588;1283;22497;-47
2023/04/13 05:52:32;;;;;;;40.10;19.60;;;;;;;10.19;100.00;98744.52;108112;1280;23226;-43
2023/04/13 05:55:52;;;;;;;39.00;17.80;;;;;;;10.21;100.00;98742.04;108181;1283;22714;-48
2023/04/13 05:58:33;;;;;;;37.30;18.90;;;;;;;10.22;100.00;98739.23;109348;1280;23227;-45
2023/04/13 06:01:23;;;;;;;28.60;16.50;;;;;;;10.23;100.00;98737.46;109250;1279;22429;-44
2023/04/13 06:03:54;;;;;;;31.90;17.20;;;;;;;10.25;100.00;98735.70;108978;1280;22536;-44
2023/04/13 06:06:29;;;;;;;35.00;18.20;;;;;;;10.25;100.00;98733.95;109243;1283;23134;-43
2023/04/13 06:09:06;;;;;;;36.00;17.70;;;;;;;10.26;100.00;98734.98;107855;1280;24384;-41
2023/04/13 06:11:53;;;;;;;38.50;19.20;;;;;;;10.27;100.00;98737.92;108081;1279;23418;-46
2023/04/13 06:14:41;;;;;;;36.30;18.70;;;;;;;10.34;100.00;98742.45;108250;1278;23716;-46
2023/04/13 06:21:39;;;;;;;40.70;19.10;;;;;;;10.54;100.00;98755.55;108527;1279;22471;-41
2023/04/13 06:25:27;;;;;;;35.40;17.80;;;;;;;10.61;100.00;98767.59;108936;1280;22542;-41
2023/04/13 06:36:12;;;;;;;;;;;;;;;10.77;100.00;98776.10;108477;1280;22610;-46
2023/04/13 06:39:41;;;;;;;34.30;17.30;;;;;;;10.78;100.00;98774.85;107767;1280;22610;-41
2023/04/13 06:42:20;;;;;;;34.40;16.90;;;;;;;10.76;100.00;98774.73;108880;1281;22905;-42
2023/04/13 06:45:25;;;;;;;36.70;17.80;;;;;;;10.71;100.00;98774.16;108912;1283;22547;-44
2023/04/13 06:47:54;;;;;;;27.20;15.20;;;;;;;10.70;100.00;98772.46;108506;1280;22903;-47
2023/04/13 06:50:23;;;;;;;29.00;17.90;;;;;;;10.69;100.00;98767.79;109251;1280;22882;-47
2023/04/13 06:52:53;;;;;;;30.60;17.00;;;;;;;10.69;100.00;98770.73;109257;1280;22208;-46
2023/04/13 06:55:27;;;;;;;23.50;14.00;;;;;;;10.71;100.00;98771.70;108759;1286;22540;-40
2023/04/13 06:57:57;;;;;;;26.30;16.10;;;;;;;10.73;100.00;98778.14;108480;1280;25602;-47
2023/04/13 07:00:26;;;;;;;26.10;15.80;;;;;;;10.76;100.00;98779.45;108821;1280;22509;-46
2023/04/13 07:03:00;;;;;;;25.00;15.50;;;;;;;10.82;100.00;98786.10;107725;1278;22403;-42
2023/04/13 07:05:31;;;;;;;25.20;15.00;;;;;;;10.88;100.00;98789.42;108350;1281;22363;-47
2023/04/13 07:08:19;;;;;;;26.50;15.50;;;;;;;10.92;100.00;98790.38;108441;1281;23039;-46
2023/04/13 07:11:31;;;;;;;24.40;15.40;;;;;;;10.98;100.00;98795.48;108822;1279;24972;-43
2023/04/13 07:18:19;;;;;;;26.90;13.80;;;;;;;11.12;100.00;98803.46;108516;1281;22531;-47
2023/04/13 07:21:48;;;;;;;23.70;13.20;;;;;;;11.16;100.00;98801.64;108846;1280;22464;-48
2023/04/13 07:24:52;;;;;;;24.60;14.10;;;;;;;11.17;100.00;98802.99;109071;1283;23067;-42
2023/04/13 07:27:46;;;;;;;24.40;13.70;;;;;;;11.18;100.00;98805.05;108496;1280;23249;-45
2023/04/13 07:30:48;;;;;;;21.00;13.20;;;;;;;11.18;100.00;98805.05;108867;1285;22259;-47
2023/04/13 07:33:59;;;;;;;20.40;13.60;;;;;;;11.20;100.00;98805.02;108899;1280;22309;-42
2023/04/13 07:36:45;;;;;;;17.70;11.40;;;;;;;11.24;100.00;98804.77;108673;1281;22529;-46
2023/04/13 07:39:20;;;;;;;20.60;11.30;;;;;;;11.25;100.00;98806.30;108332;1278;22425;-42
2023/04/13 07:41:53;;;;;;;18.00;11.70;;;;;;;11.24;100.00;98805.27;109233;1281;22355;-47
2023/04/13 07:44:38;;;;;;;18.40;11.10;;;;;;;11.23;100.00;98809.83;108821;1282;22526;-42
2023/04/13 07:47:07;;;;;;;19.70;10.90;;;;;;;11.25;100.00;98817.11;108706;1280;22565;-41
2023/04/13 07:49:36;;;;;;;16.50;10.90;;;;;;;11.25;100.00;98814.66;108684;1280;23191;-42
2023/04/13 07:52:11;;;;;;;15.20;10.80;;;;;;;11.30;100.00;98813.48;108295;1280;22542;-41
2023/04/13 07:54:41;;;;;;;16.70;9.90;;;;;;;11.37;100.00;98810.68;109089;1280;22409;-42
2023/04/13 07:57:11;;;;;;;16.30;10.60;;;;;;;11.45;100.00;98804.52;108842;1279;23140;-46
2023/04/13 07:59:50;;;;;;;20.40;10.90;;;;;;;11.51;100.00;98803.48;108949;1281;22314;-41
2023/04/13 08:02:21;;;;;;;18.00;10.30;;;;;;;11.59;100.00;98801.35;108898;1280;22909;-46
2023/04/13 08:04:57;;;;;;;16.90;10.20;;;;;;;11.68;100.00;98802.31;109008;1280;22591;-46
2023/04/13 08:07:34;;;;;;;17.50;9.70;;;;;;;11.75;100.00;98800.56;109117;1281;22283;-47
2023/04/13 08:10:04;;;;;;;15.00;10.70;;;;;;;11.83;100.00;98801.39;108887;1280;22567;-48
2023/04/13 08:12:39;;;;;;;11.50;8.40;;;;;;;11.93;100.00;98799.02;108429;1281;22416;-43
2023/04/13 08:15:25;;;;;;;12.20;8.50;;;;;;;11.93;100.00;98803.56;107967;1280;22270;-42
2023/04/13 08:18:02;;;;;;;13.20;8.60;;;;;;;11.88;100.00;98811.40;109154;1286;23314;-43
2023/04/13 08:21:03;;;;;;;10.90;8.50;;;;;;;11.83;100.00;98812.23;109163;1280;22957;-46
2023/04/13 08:23:42;;;;;;;11.30;8.40;;;;;;;11.77;100.00;98817.11;108428;1280;22533;-41
2023/04/13 08:26:18;;;;;;;12.30;8.70;;;;;;;11.71;100.00;98818.48;108818;1280;22431;-46
2023/04/13 08:28:52;;;;;;;14.80;9.80;;;;;;;11.70;100.00;98821.82;108314;1280;23183;-47
2023/04/13 08:32:09;;;;;;;11.10;8.80;;;;;;;11.70;100.00;98823.74;109002;1280;22589;-44
2023/04/13 08:35:06;;;;;;;11.00;8.50;;;;;;;11.68;100.00;98822.59;108277;1280;22339;-46
2023/04/13 08:37:38;;;;;;;10.00;8.00;;;;;;;11.70;100.00;98818.85;108987;1280;22210;-46
2023/04/13 08:40:10;;;;;;;12.80;9.70;;;;;;;11.73;100.00;98824.02;109142;1280;22380;-41
2023/04/13 08:42:40;;;;;;;16.70;10.60;;;;;;;11.76;100.00;98824.98;109125;1283;23308;-42
2023/04/13 08:45:09;;;;;;;13.40;9.70;;;;;;;11.76;100.00;98819.91;109197;1286;23441;-43
2023/04/13 08:47:39;;;;;;;11.50;9.10;;;;;;;11.78;100.00;98823.54;109236;1281;22382;-46
2023/04/13 08:50:08;;;;;;;14.10;10.90;;;;;;;11.81;100.00;98825.72;109269;1286;22358;-46
2023/04/13 08:52:43;;;;;;;14.00;11.00;;;;;;;11.84;100.00;98825.31;109365;1281;22378;-48
2023/04/13 08:55:17;;;;;;;13.60;10.70;;;;;;;11.87;100.00;98823.12;109082;1280;23109;-41
2023/04/13 08:57:47;;;;;;;14.40;10.60;;;;;;;11.94;100.00;98827.45;109124;1283;22377;-48
2023/04/13 09:00:20;;;;;;;16.10;11.30;;;;;;;12.01;100.00;98827.45;109354;1279;22307;-46
2023/04/13 09:02:57;;;;;;;12.80;10.50;;;;;;;12.06;100.00;98822.40;109220;1283;23072;-46
2023/04/13 09:05:37;;;;;;;12.00;9.60;;;;;;;12.13;100.00;98826.22;109273;1283;23148;-41
2023/04/13 09:08:06;;;;;;;12.80;10.50;;;;;;;12.17;100.00;98825.91;109348;1284;22493;-42
2023/04/13 09:10:39;;;;;;;12.30;9.50;;;;;;;12.21;100.00;98828.05;109324;1282;22398;-42
2023/04/13 09:13:10;;;;;;;12.40;11.10;;;;;;;12.22;100.00;98825.05;109270;1281;22438;-45
2023/04/13 09:15:39;;;;;;;14.10;10.90;;;;;;;12.24;100.00;98822.77;109259;1286;22848;-46
2023/04/13 09:18:20;;;;;;;13.40;10.20;;;;;;;12.23;100.00;98818.75;109151;1281;22393;-47
2023/04/13 09:21:00;;;;;;;14.20;10.10;;;;;;;12.22;100.00;98817.90;108688;1278;22598;-46
2023/04/13 09:24:19;;;;;;;17.30;10.30;;;;;;;12.21;100.00;98822.47;108566;1280;22492;-47
2023/04/13 09:26:54;;;;;;;12.50;10.80;;;;;;;12.19;100.00;98823.40;108942;1280;22545;-43
2023/04/13 09:29:24;;;;;;;16.60;10.70;;;;;;;12.18;100.00;98822.91;108890;1280;23060;-47
2023/04/13 09:31:53;;;;;;;12.80;10.20;;;;;;;12.18;100.00;98824.84;109048;1281;22397;-42
2023/04/13 09:34:26;;;;;;;12.10;10.80;;;;;;;12.18;100.00;98824.84;109257;1281;22363;-41
2023/04/13 09:36:57;;;;;;;12.00;9.70;;;;;;;12.22;100.00;98824.71;109289;1280;22426;-43
2023/04/13 09:39:29;;;;;;;12.30;9.50;;;;;;;12.29;100.00;98825.56;109087;1280;22462;-43
2023/04/13 09:42:09;;;;;;;10.60;9.10;;;;;;;12.35;100.00;98825.04;109223;1279;22369;-43
2023/04/13 09:44:38;;;;;;;15.00;9.90;;;;;;;12.41;100.00;98828.35;109203;1280;22449;-47
2023/04/13 09:47:07;;;;;;;16.10;8.60;;;;;;;12.46;100.00;98830.83;109281;1280;22632;-42
2023/04/13 09:49:44;;;;;;;9.00;8.10;;;;;;;12.53;100.00;98834.09;109190;1281;22387;-48
2023/04/13 09:52:22;;;;;;;9.60;8.20;;;;;;;12.63;100.00;98831.18;107962;1283;22636;-47
2023/04/13 09:54:58;;;;;;;10.10;7.50;;;;;;;12.75;100.00;98827.80;109308;1280;22202;-43
2023/04/13 09:57:27;;;;;;;8.90;7.50;;;;;;;12.91;100.00;98832.38;109154;1281;23942;-41
2023/04/13 10:00:05;;;;;;;8.60;7.70;;;;;;;13.08;100.00;98836.71;109391;1280;23170;-41
2023/04/13 10:02:41;;;;;;;8.70;7.00;;;;;;;13.19;100.00;98837.91;109549;1284;22273;-47
2023/04/13 10:05:11;;;;;;;9.10;7.90;;;;;;;13.29;100.00;98841.83;109483;1279;22216;-47
2023/04/13 10:07:45;;;;;;;9.30;7.60;;;;;;;13.40;100.00;98836.16;109505;1282;22763;-46
2023/04/13 10:10:14;;;;;;;7.30;5.90;;;;;;;13.50;100.00;98834.77;109401;1280;22303;-43
2023/04/13 10:12:46;;;;;;;7.60;6.80;;;;;;;13.60;100.00;98835.83;109441;1280;22451;-42
2023/04/13 10:15:56;;;;;;;6.80;6.10;;;;;;;13.69;100.00;98833.23;109153;1280;22385;-42
2023/04/13 10:19:05;;;;;;;7.60;6.70;;;;;;;13.71;100.00;98839.81;108288;1284;22607;-43
2023/04/13 10:21:45;;;;;;;8.60;7.40;;;;;;;13.72;100.00;98837.33;108288;1280;22562;-42
2023/04/13 10:24:24;;;;;;;8.80;6.90;;;;;;;13.73;100.00;98837.98;108273;1283;22538;-50
2023/04/13 10:27:19;;;;;;;8.80;6.90;;;;;;;13.73;100.00;98840.09;108014;1281;24407;-42
2023/04/13 10:37:27;;;;;;;7.60;6.50;;;;;;;13.72;100.00;98848.55;109281;1280;22417;-43
2023/04/13 10:45:17;;;;;;;8.30;6.70;;;;;;;13.59;100.00;98848.66;108586;1289;23071;-48
2023/04/13 10:48:20;;;;;;;13.10;6.90;;;;;;;13.50;100.00;98854.02;108361;1273;23143;-47
2023/04/13 10:50:58;;;;;;;8.00;7.10;;;;;;;13.53;100.00;98853.92;108161;1289;22377;-43
2023/04/13 10:53:31;;;;;;;11.30;8.10;;;;;;;13.56;100.00;98856.10;107688;1286;22364;-43
2023/04/13 10:56:00;;;;;;;11.70;7.90;;;;;;;13.52;100.00;98860.96;107891;1286;23345;-47
2023/04/13 10:58:31;;;;;;;10.20;8.50;;;;;;;13.45;100.00;98861.05;108191;1289;22257;-42
2023/04/13 11:01:00;;;;;;;11.50;9.30;;;;;;;13.36;100.00;98865.39;108548;1289;22192;-47
2023/04/13 11:03:29;;;;;;;12.90;10.00;;;;;;;13.23;100.00;98864.75;108678;1293;22291;-44
2023/04/13 11:05:58;;;;;;;17.70;12.10;;;;;;;13.14;100.00;98867.50;108576;1294;115283;-42
2023/04/13 11:08:27;;;;;;;18.10;12.70;;;;;;;13.02;100.00;98863.15;108782;1292;23105;-43
2023/04/13 11:10:56;;;;;;;20.10;12.50;;;;;;;12.91;100.00;98865.61;108801;1292;22240;-48
2023/04/13 11:13:24;;;;;;;16.40;11.90;;;;;;;12.80;100.00;98869.30;108888;1286;22290;-47
2023/04/13 11:16:00;;;;;;;21.80;15.20;;;;;;;12.74;100.00;98876.65;108903;1293;23000;-46
2023/04/13 11:18:30;;;;;;;23.90;15.10;;;;;;;12.71;100.00;98878.32;109357;1281;22288;-47
2023/04/13 11:20:59;;;;;;;22.60;14.60;;;;;;;12.71;100.00;98882.50;109457;1280;23694;-47
2023/04/13 11:23:33;;;;;;;22.40;13.40;;;;;;;12.72;100.00;98877.95;109537;1285;22939;-44
2023/04/13 11:26:03;;;;;;;19.90;13.50;;;;;;;12.72;100.00;98877.58;109543;1285;22186;-42
2023/04/13 11:28:37;;;;;;;26.00;14.60;;;;;;;12.71;100.00;98877.96;108785;1280;22236;-44
2023/04/13 11:31:06;;;;;;;24.50;14.60;;;;;;;12.70;100.00;98874.68;109607;1284;23178;-47
2023/04/13 11:33:35;;;;;;;23.60;15.40;;;;;;;12.69;100.00;98873.11;108785;1285;22333;-47
2023/04/13 11:36:08;;;;;;;26.30;15.10;;;;;;;12.69;100.00;98873.80;107489;1280;22943;-48
2023/04/13 11:38:39;;;;;;;23.00;14.40;;;;;;;12.67;100.00;98876.50;109527;1281;22319;-43
2023/04/13 11:41:07;;;;;;;21.30;13.50;;;;;;;12.66;100.00;98874.44;108173;1285;22408;-46
2023/04/13 11:43:50;;;;;;;23.80;14.30;;;;;;;12.67;100.00;98874.74;108946;1287;25239;-46
2023/04/13 11:46:23;;;;;;;23.80;13.80;;;;;;;12.69;100.00;98875.57;107625;1286;22690;-46
2023/04/13 11:48:53;;;;;;;27.90;14.50;;;;;;;12.72;100.00;98879.16;107165;1287;23914;-42
2023/04/13 11:51:21;;;;;;;28.00;15.60;;;;;;;12.72;100.00;98884.23;108495;1287;25500;-42
2023/04/13 11:53:50;;;;;;;23.00;13.70;;;;;;;12.68;100.00;98883.12;108734;1286;22178;-46
2023/04/13 11:56:19;;;;;;;32.10;14.40;;;;;;;12.62;100.00;98889.26;109226;1286;22233;-43
2023/04/13 11:58:52;;;;;;;25.80;13.50;;;;;;;12.51;100.00;98887.31;109185;1287;22218;-46
2023/04/13 12:01:21;;;;;;;21.60;13.20;;;;;;;12.44;100.00;98887.36;109643;1287;23181;-45
2023/04/13 12:04:06;;;;;;;24.40;13.20;;;;;;;12.35;100.00;98884.81;108764;1286;23928;-47
2023/04/13 12:06:45;;;;;;;22.30;14.10;;;;;;;12.27;100.00;98879.48;106328;1287;22542;-47
2023/04/13 12:09:15;;;;;;;19.70;11.20;;;;;;;12.19;100.00;98888.06;108953;1286;22288;-47
2023/04/13 12:11:52;;;;;;;20.10;12.80;;;;;;;12.14;100.00;98889.61;107697;1285;22396;-43
2023/04/13 12:14:41;;;;;;;23.10;13.50;;;;;;;12.11;100.00;98900.02;108391;1286;23310;-45
